Time;durP1;ratioP1;P1;durP2;ratioP2;P2;SDS_P1;SDS_P2;PMS_P1;PMS_P2;Temp;Humidity;BMP_temperature;BMP_pressure;BME280_temperature;BME280_humidity;BME280_pressure;Samples;Min_cycle;Max_cycle;Signal;HPM_P1;HPM_P2
2022/05/21 00:00:49;;;;;;;6.10;3.77;;;;;;;15.80;53.26;98767.75;1720708;83;21249;-43
2022/05/21 00:03:16;;;;;;;9.45;3.95;;;;;;;15.78;53.45;98766.63;1720669;83;21016;-43
2022/05/21 00:05:45;;;;;;;6.53;3.90;;;;;;;15.76;53.80;98763.52;1720866;83;20993;-43
2022/05/21 00:08:11;;;;;;;6.65;3.70;;;;;;;15.75;54.05;98766.83;1672075;83;21056;-43
2022/05/21 00:10:39;;;;;;;6.45;3.65;;;;;;;15.73;54.30;98765.12;1720700;83;21028;-43
2022/05/21 00:13:06;;;;;;;8.58;4.20;;;;;;;15.71;54.61;98762.00;1715022;83;21133;-43
2022/05/21 00:15:34;;;;;;;8.93;4.03;;;;;;;15.69;54.93;98753.42;1707767;84;21017;-43
2022/05/21 00:18:01;;;;;;;11.05;3.85;;;;;;;15.68;55.15;98747.80;1707728;84;21061;-43
2022/05/21 00:23:24;;;;;;;6.70;3.98;;;;;;;15.70;55.71;98738.59;1707695;84;21005;-43
2022/05/21 00:26:05;;;;;;;8.35;4.25;;;;;;;15.70;55.94;98746.78;1707671;84;20930;-43
2022/05/21 00:28:32;;;;;;;8.93;4.20;;;;;;;15.69;55.99;98747.18;1707926;84;20941;-43
2022/05/21 00:30:59;;;;;;;10.43;3.95;;;;;;;15.68;56.23;98745.66;1704052;84;21040;-43
2022/05/21 00:33:27;;;;;;;6.53;4.20;;;;;;;15.67;56.53;98742.14;1707712;84;21020;-43
2022/05/21 00:35:53;;;;;;;5.72;3.50;;;;;;;15.65;56.77;98746.64;1708077;84;21053;-43
2022/05/21 00:38:21;;;;;;;7.08;3.60;;;;;;;15.64;57.00;98742.36;1707769;84;21261;-43
2022/05/21 00:40:48;;;;;;;6.67;4.20;;;;;;;15.62;57.01;98749.42;1707590;84;20988;-43
2022/05/21 00:43:46;;;;;;;7.58;4.20;;;;;;;15.59;57.29;98745.53;1707623;84;20930;-43
2022/05/21 00:46:21;;;;;;;9.70;3.62;;;;;;;15.59;57.55;98757.05;1743546;82;21104;-43
2022/05/21 00:49:05;;;;;;;6.03;3.77;;;;;;;15.55;57.68;98750.27;1742828;81;21072;-43
2022/05/21 00:51:36;;;;;;;8.55;3.72;;;;;;;15.55;57.96;98758.46;1743704;82;21205;-43
2022/05/21 00:54:03;;;;;;;9.50;4.08;;;;;;;15.54;58.02;98765.10;1743047;81;21009;-43
2022/05/21 00:56:33;;;;;;;7.37;3.85;;;;;;;15.54;58.28;98760.25;1758262;81;21796;-43
2022/05/21 01:01:49;;;;;;;7.15;3.90;;;;;;;15.54;58.43;98759.64;1743872;82;21006;-43
2022/05/21 01:04:16;;;;;;;10.82;4.55;;;;;;;15.53;58.65;98758.70;1743796;81;21805;-43
2022/05/21 01:06:43;;;;;;;8.35;3.90;;;;;;;15.52;58.78;98763.38;1743540;82;21455;-43
2022/05/21 01:09:10;;;;;;;7.95;4.17;;;;;;;15.52;58.91;98753.83;1743429;81;21001;-43
2022/05/21 01:11:37;;;;;;;7.87;4.30;;;;;;;15.52;59.03;98755.19;1743496;81;20935;-43
2022/05/21 01:14:04;;;;;;;8.25;4.10;;;;;;;15.56;59.31;98752.41;1752670;81;21083;-43
2022/05/21 01:16:32;;;;;;;9.18;4.25;;;;;;;15.61;59.49;98757.43;1756859;81;21239;-43
2022/05/21 01:18:59;;;;;;;9.63;4.60;;;;;;;15.68;59.49;98760.09;1757015;81;20990;-43
2022/05/21 01:21:26;;;;;;;6.28;3.98;;;;;;;15.72;59.52;98763.56;1756619;81;20921;-43
2022/05/21 01:23:53;;;;;;;5.58;3.95;;;;;;;15.73;59.50;98755.55;1756723;81;20993;-43
2022/05/21 01:26:22;;;;;;;7.33;3.85;;;;;;;15.76;59.55;98755.31;1671998;83;21298;-43
2022/05/21 01:28:49;;;;;;;8.98;4.35;;;;;;;15.78;59.55;98756.44;1720586;83;21282;-43
2022/05/21 01:31:16;;;;;;;6.65;3.62;;;;;;;15.79;59.52;98756.63;1720873;83;21530;-43
2022/05/21 01:33:44;;;;;;;7.22;4.28;;;;;;;15.80;59.61;98750.58;1720852;83;21543;-43
2022/05/21 01:36:13;;;;;;;8.50;4.37;;;;;;;15.80;59.65;98751.35;1720533;83;21092;-43
2022/05/21 01:38:41;;;;;;;7.75;3.90;;;;;;;15.80;59.74;98749.98;1720918;83;21024;-43
2022/05/21 01:41:09;;;;;;;7.20;3.92;;;;;;;15.80;59.92;98750.58;1720437;83;23155;-43
2022/05/21 01:46:22;;;;;;;10.15;3.98;;;;;;;15.76;60.09;98742.42;1720746;83;21084;-43
2022/05/21 01:48:49;;;;;;;8.13;4.12;;;;;;;15.74;60.36;98737.95;1720559;83;21572;-43
2022/05/21 01:51:15;;;;;;;8.50;4.33;;;;;;;15.75;60.52;98738.73;1720589;83;21040;-43
2022/05/21 01:53:42;;;;;;;9.33;4.22;;;;;;;15.78;60.38;98745.51;1720563;83;21288;-43
2022/05/21 01:56:10;;;;;;;8.63;4.25;;;;;;;15.84;60.45;98739.00;1720635;83;20956;-43
2022/05/21 01:58:37;;;;;;;10.63;4.17;;;;;;;15.85;60.54;98737.83;1720750;83;20933;-43
2022/05/21 02:01:05;;;;;;;7.87;3.90;;;;;;;15.83;60.59;98742.94;1720641;83;21522;-43
2022/05/21 02:03:32;;;;;;;9.35;4.22;;;;;;;15.82;60.51;98745.48;1720736;83;21056;-43
2022/05/21 02:05:58;;;;;;;10.35;4.25;;;;;;;15.81;60.60;98733.77;1720614;83;21281;-43
2022/05/21 02:08:25;;;;;;;8.20;4.40;;;;;;;15.80;60.81;98730.08;1720597;83;20944;-43
2022/05/21 02:10:52;;;;;;;9.58;4.15;;;;;;;15.78;60.86;98736.56;1720586;83;21080;-43
2022/05/21 02:13:23;;;;;;;9.10;4.33;;;;;;;15.74;61.03;98728.37;1719221;83;21560;-43
2022/05/21 02:15:51;;;;;;;6.20;4.08;;;;;;;15.74;61.42;98724.28;1715336;83;20996;-43
2022/05/21 02:18:19;;;;;;;5.65;4.05;;;;;;;15.78;61.39;98722.28;1715562;83;21233;-43
2022/05/21 02:20:49;;;;;;;6.85;3.92;;;;;;;15.83;61.63;98720.45;1715486;83;20973;-43
2022/05/21 02:23:17;;;;;;;9.60;4.47;;;;;;;15.84;61.63;98719.28;1715421;83;21089;-43
2022/05/21 02:25:44;;;;;;;9.58;4.08;;;;;;;15.86;61.74;98725.12;1715709;83;21116;-43
2022/05/21 02:28:12;;;;;;;8.75;3.92;;;;;;;15.89;61.71;98727.61;1715355;83;21100;-43
2022/05/21 02:30:39;;;;;;;7.58;4.10;;;;;;;15.90;61.72;98725.84;1715529;83;21244;-43
2022/05/21 02:33:06;;;;;;;8.13;4.45;;;;;;;15.92;61.77;98722.13;1715492;83;20933;-43
2022/05/21 02:35:33;;;;;;;6.47;3.62;;;;;;;15.94;61.92;98728.53;1715637;83;21554;-43
2022/05/21 02:40:48;;;;;;;7.22;4.03;;;;;;;16.04;61.69;98730.35;1715399;83;21381;-43
2022/05/21 02:43:14;;;;;;;10.13;4.62;;;;;;;16.07;61.72;98724.83;1715211;83;21137;-43
2022/05/21 02:45:42;;;;;;;9.35;4.40;;;;;;;16.08;61.81;98722.28;1715391;83;20955;-43
2022/05/21 02:48:09;;;;;;;14.95;4.45;;;;;;;16.11;61.83;98719.92;1715394;83;20913;-43
2022/05/21 02:50:36;;;;;;;7.37;4.25;;;;;;;16.14;61.87;98721.83;1715203;83;21562;-43
2022/05/21 02:53:05;;;;;;;10.68;4.10;;;;;;;16.17;61.95;98722.39;1715190;83;20984;-43
2022/05/21 02:55:34;;;;;;;5.60;3.65;;;;;;;16.20;61.82;98720.96;1715287;83;21092;-43
2022/05/21 02:58:01;;;;;;;9.03;4.83;;;;;;;16.25;61.78;98715.03;1715221;83;21485;-43
2022/05/21 03:00:30;;;;;;;8.43;4.00;;;;;;;16.31;61.74;98712.61;1715302;83;21020;-43
2022/05/21 03:02:59;;;;;;;8.43;3.85;;;;;;;16.36;61.63;98712.14;1715243;83;20980;-43
2022/05/21 03:05:26;;;;;;;15.63;4.47;;;;;;;16.38;61.61;98700.95;1715222;83;21532;-43
2022/05/21 03:07:53;;;;;;;7.53;4.00;;;;;;;16.41;61.55;98698.00;1715741;83;21097;-43
2022/05/21 03:10:23;;;;;;;7.10;4.22;;;;;;;16.42;61.56;98696.20;1715228;83;21087;-43
2022/05/21 03:13:00;;;;;;;11.73;4.25;;;;;;;16.43;61.51;98693.65;1715726;83;21483;-43
2022/05/21 03:15:35;;;;;;;11.40;4.35;;;;;;;16.44;61.55;98687.59;1707675;83;21013;-43
2022/05/21 03:18:06;;;;;;;9.08;4.17;;;;;;;16.45;61.65;98692.66;1707702;84;21088;-43
2022/05/21 03:20:34;;;;;;;6.55;4.20;;;;;;;16.50;61.60;98696.29;1707641;84;21637;-43
2022/05/21 03:23:00;;;;;;;9.58;4.03;;;;;;;16.57;61.41;98694.02;1707873;84;21551;-43
2022/05/21 03:25:30;;;;;;;7.35;4.28;;;;;;;16.60;61.43;98686.39;1707518;84;21609;-43
2022/05/21 03:28:40;;;;;;;10.08;4.40;;;;;;;16.68;61.20;98680.97;1785430;79;22688;-42
2022/05/21 03:31:07;;;;;;;9.28;4.50;;;;;;;16.65;61.22;98676.34;1757229;81;20989;-42
2022/05/21 03:33:34;;;;;;;11.55;4.47;;;;;;;16.70;61.10;98676.45;1757126;81;23109;-43
2022/05/21 03:36:01;;;;;;;7.17;4.80;;;;;;;16.72;61.20;98680.31;1756979;81;20987;-42
2022/05/21 03:38:27;;;;;;;7.30;4.62;;;;;;;16.74;61.13;98677.17;1757144;81;21000;-43
2022/05/21 03:40:54;;;;;;;11.25;4.50;;;;;;;16.76;61.11;98676.92;1757200;81;20924;-43
2022/05/21 03:43:21;;;;;;;7.03;4.28;;;;;;;16.81;61.04;98680.55;1757132;81;21019;-43
2022/05/21 03:45:49;;;;;;;12.23;4.37;;;;;;;16.88;60.86;98686.50;1757201;81;21257;-43
2022/05/21 03:48:17;;;;;;;8.08;4.10;;;;;;;16.94;60.77;98677.38;1757433;81;20995;-43
2022/05/21 03:50:44;;;;;;;8.00;4.40;;;;;;;17.01;60.67;98677.08;1757129;81;20968;-43
2022/05/21 03:53:13;;;;;;;9.48;4.92;;;;;;;17.08;60.51;98666.01;1757203;81;21043;-43
2022/05/21 03:55:39;;;;;;;9.75;4.25;;;;;;;17.13;60.48;98666.89;1757187;81;20999;-43
2022/05/21 03:58:06;;;;;;;10.70;4.03;;;;;;;17.20;60.32;98667.52;1757221;81;23210;-43
2022/05/21 04:00:33;;;;;;;7.17;3.90;;;;;;;17.27;60.14;98658.41;1757116;81;20936;-43
2022/05/21 04:03:01;;;;;;;12.30;4.80;;;;;;;17.31;60.10;98657.14;1757397;80;21015;-43
2022/05/21 04:05:30;;;;;;;8.95;4.50;;;;;;;17.37;59.82;98667.02;1757284;81;20988;-43
2022/05/21 04:07:56;;;;;;;7.35;4.08;;;;;;;17.42;59.83;98666.53;1757102;81;21565;-43
2022/05/21 04:10:23;;;;;;;12.60;4.50;;;;;;;17.49;59.65;98663.62;1756941;81;23127;-43
2022/05/21 04:12:51;;;;;;;10.53;4.65;;;;;;;17.56;59.54;98666.24;1757267;81;21514;-43
2022/05/21 04:15:19;;;;;;;8.25;4.05;;;;;;;17.62;59.86;98670.04;1751955;81;21072;-43
2022/05/21 04:17:47;;;;;;;8.33;4.45;;;;;;;17.72;59.12;98664.16;1757186;81;21354;-43
2022/05/21 04:20:16;;;;;;;10.55;4.50;;;;;;;17.83;58.83;98663.94;1757129;81;21021;-42
2022/05/21 04:22:44;;;;;;;;;;;;;;;17.88;58.99;98656.58;1759772;81;22163;-42
2022/05/21 04:25:10;;;;;;;10.25;4.85;;;;;;;17.92;59.09;98659.42;1757022;81;20129;-44
2022/05/21 04:27:41;;;;;;;10.35;4.37;;;;;;;17.87;58.83;98649.55;1754868;81;20973;-43
2022/05/21 04:30:21;;;;;;;9.23;4.15;;;;;;;17.93;58.97;98651.37;1752109;81;21547;-43
2022/05/21 04:32:47;;;;;;;11.15;4.53;;;;;;;17.99;58.88;98648.91;1750461;81;21029;-43
2022/05/21 04:35:17;;;;;;;9.75;4.22;;;;;;;18.03;58.64;98649.59;1751913;81;21088;-44
2022/05/21 04:37:45;;;;;;;12.85;4.78;;;;;;;18.09;58.59;98646.52;1752137;81;21099;-44
2022/05/21 04:40:21;;;;;;;6.92;4.60;;;;;;;18.13;58.34;98635.64;1751609;82;20913;-43
2022/05/21 04:42:48;;;;;;;7.20;4.17;;;;;;;18.19;58.04;98624.93;1751483;82;21032;-44
2022/05/21 04:45:15;;;;;;;10.03;4.90;;;;;;;18.25;58.12;98630.05;1751433;82;21032;-44
2022/05/21 04:47:44;;;;;;;10.45;4.62;;;;;;;18.32;58.24;98623.64;1751563;82;22256;-43
2022/05/21 04:50:12;;;;;;;6.60;3.72;;;;;;;18.37;57.58;98612.92;1751314;82;21017;-44
2022/05/21 04:52:38;;;;;;;7.42;4.35;;;;;;;18.41;57.51;98614.20;1751707;82;20988;-43
2022/05/21 04:55:07;;;;;;;10.78;4.47;;;;;;;18.44;57.44;98610.02;1751403;82;21060;-44
2022/05/21 04:57:35;;;;;;;7.30;4.28;;;;;;;18.47;57.27;98617.38;1751763;82;20993;-43
2022/05/21 05:00:04;;;;;;;7.15;4.30;;;;;;;18.51;57.36;98626.30;1751682;82;21208;-43
2022/05/21 05:02:30;;;;;;;9.50;4.45;;;;;;;18.58;57.31;98638.52;1751626;82;21021;-44
2022/05/21 05:04:57;;;;;;;8.35;4.42;;;;;;;18.66;57.07;98624.77;1751776;82;21048;-43
2022/05/21 05:07:25;;;;;;;10.13;4.28;;;;;;;18.76;56.73;98619.42;1751591;82;21048;-44
2022/05/21 05:09:52;;;;;;;8.13;4.17;;;;;;;18.80;56.32;98618.12;1751526;82;21084;-44
2022/05/21 05:12:18;;;;;;;9.13;4.50;;;;;;;18.84;56.52;98617.43;1746924;82;21310;-44
2022/05/21 05:14:45;;;;;;;13.45;4.87;;;;;;;18.88;56.57;98620.11;1751417;82;21011;-44
2022/05/21 05:17:13;;;;;;;8.08;4.20;;;;;;;18.92;56.70;98624.90;1751254;82;21031;-44
2022/05/21 05:19:40;;;;;;;9.10;4.72;;;;;;;18.98;57.08;98621.77;1751417;82;20968;-44
2022/05/21 05:22:09;;;;;;;6.12;4.05;;;;;;;19.05;56.73;98619.63;1751229;82;21586;-44
2022/05/21 05:24:37;;;;;;;12.35;4.80;;;;;;;19.16;56.28;98616.59;1751804;82;21302;-44
2022/05/21 05:27:05;;;;;;;8.68;4.90;;;;;;;19.25;55.77;98613.20;1751457;82;21036;-44
2022/05/21 05:29:31;;;;;;;8.25;5.00;;;;;;;19.29;55.35;98609.74;1751401;82;21508;-44
2022/05/21 05:31:58;;;;;;;8.40;4.40;;;;;;;19.33;55.55;98611.19;1751410;81;21032;-44
2022/05/21 05:34:25;;;;;;;10.63;4.47;;;;;;;19.37;55.57;98611.08;1751371;82;21079;-44
2022/05/21 05:36:52;;;;;;;7.83;5.00;;;;;;;19.43;55.50;98616.98;1751385;82;21260;-44
2022/05/21 05:39:20;;;;;;;8.08;4.97;;;;;;;19.48;55.32;98609.60;1751187;82;21186;-44
2022/05/21 05:41:48;;;;;;;6.70;4.95;;;;;;;19.55;55.11;98609.23;1751306;82;20929;-44
2022/05/21 05:44:15;;;;;;;11.25;4.30;;;;;;;19.59;54.79;98600.27;1751371;82;21096;-44
2022/05/21 05:46:41;;;;;;;7.15;4.80;;;;;;;19.62;54.73;98605.66;1751642;82;21044;-44
2022/05/21 05:49:09;;;;;;;8.55;4.95;;;;;;;19.64;54.32;98596.38;1751585;82;21137;-45
2022/05/21 05:51:37;;;;;;;12.15;4.62;;;;;;;19.65;54.39;98591.66;1751463;82;21488;-43
2022/05/21 05:54:04;;;;;;;9.18;4.42;;;;;;;19.68;54.73;98583.89;1751507;82;21609;-44
2022/05/21 05:56:31;;;;;;;10.00;4.83;;;;;;;19.72;54.98;98589.45;1751681;82;21076;-44
2022/05/21 06:01:44;;;;;;;9.33;4.75;;;;;;;19.83;54.48;98585.00;1751584;82;21310;-44
2022/05/21 06:04:11;;;;;;;9.18;4.80;;;;;;;19.84;54.63;98581.05;1751239;82;21028;-44
2022/05/21 06:06:38;;;;;;;7.80;4.37;;;;;;;19.84;54.68;98581.05;1751595;82;21642;-44
2022/05/21 06:09:06;;;;;;;6.67;4.47;;;;;;;19.85;54.58;98575.69;1751326;82;21012;-43
2022/05/21 06:11:37;;;;;;;7.03;4.62;;;;;;;19.85;54.31;98581.19;1751353;82;21096;-44
2022/05/21 06:14:02;;;;;;;10.98;4.60;;;;;;;19.86;54.39;98577.23;1751203;81;21246;-44
2022/05/21 06:16:28;;;;;;;7.47;4.40;;;;;;;19.88;54.34;98584.45;1751374;82;21041;-44
2022/05/21 06:18:57;;;;;;;6.92;3.98;;;;;;;19.89;54.03;98586.77;1751447;82;21033;-44
2022/05/21 06:21:24;;;;;;;7.47;4.78;;;;;;;19.93;54.31;98585.28;1751498;82;21487;-44
2022/05/21 06:23:53;;;;;;;10.15;4.80;;;;;;;20.00;53.92;98585.03;1751242;82;21429;-44
2022/05/21 06:26:20;;;;;;;8.08;4.62;;;;;;;20.10;53.90;98570.17;1751331;82;21152;-44
2022/05/21 06:28:50;;;;;;;7.62;4.72;;;;;;;20.18;53.46;98566.00;1746090;82;21527;-44
2022/05/21 06:31:17;;;;;;;8.13;4.62;;;;;;;20.27;53.23;98561.19;1743454;82;21080;-44
2022/05/21 06:33:45;;;;;;;8.88;4.42;;;;;;;20.34;53.05;98569.23;1743341;82;21351;-44
2022/05/21 06:36:14;;;;;;;11.20;4.67;;;;;;;20.39;52.90;98561.18;1743308;82;20989;-44
2022/05/21 06:38:44;;;;;;;15.35;4.78;;;;;;;20.46;52.87;98555.28;1743387;82;23162;-44
2022/05/21 06:41:12;;;;;;;7.78;4.47;;;;;;;20.54;53.10;98551.05;1743317;82;21004;-44
2022/05/21 06:43:40;;;;;;;11.00;4.75;;;;;;;20.64;52.95;98541.05;1743364;82;20973;-43
2022/05/21 06:46:08;;;;;;;7.55;4.37;;;;;;;20.74;52.72;98544.05;1743410;82;21008;-44
2022/05/21 06:48:35;;;;;;;7.70;4.60;;;;;;;20.84;52.36;98539.38;1743633;82;21010;-44
2022/05/21 06:51:05;;;;;;;10.95;4.80;;;;;;;20.88;51.52;98537.86;1743632;82;21298;-44
2022/05/21 06:53:34;;;;;;;9.58;4.03;;;;;;;20.88;51.96;98538.63;1743573;82;20977;-44
2022/05/21 06:56:10;;;;;;;7.50;4.28;;;;;;;20.90;52.17;98533.45;1743792;82;20949;-44
2022/05/21 06:58:38;;;;;;;11.57;4.47;;;;;;;20.95;52.01;98530.13;1743500;82;21020;-44
2022/05/21 07:01:07;;;;;;;8.75;4.65;;;;;;;21.00;51.73;98526.02;1743498;82;20985;-44
2022/05/21 07:03:34;;;;;;;7.47;4.33;;;;;;;21.06;51.81;98524.20;1743400;82;21090;-44
2022/05/21 07:08:39;;;;;;;12.23;4.50;;;;;;;21.24;51.53;98518.24;1725590;82;21050;-44
2022/05/21 07:11:06;;;;;;;6.60;4.40;;;;;;;21.33;51.54;98513.98;1743109;82;21418;-44
2022/05/21 07:13:33;;;;;;;7.08;4.28;;;;;;;21.41;51.56;98511.11;1743305;82;21044;-44
2022/05/21 07:16:00;;;;;;;9.10;4.60;;;;;;;21.47;51.10;98501.03;1743340;82;21152;-44
2022/05/21 07:18:28;;;;;;;12.85;3.92;;;;;;;21.53;50.72;98500.00;1743189;82;21488;-44
2022/05/21 07:20:55;;;;;;;8.93;4.20;;;;;;;21.59;50.56;98489.88;1743463;82;21028;-44
2022/05/21 07:23:24;;;;;;;7.97;4.20;;;;;;;21.71;50.88;98493.00;1743443;82;20941;-44
2022/05/21 07:25:52;;;;;;;7.77;4.30;;;;;;;21.93;50.92;98490.32;1743685;82;21081;-44
2022/05/21 07:28:19;;;;;;;7.05;4.15;;;;;;;21.93;50.92;98490.32;1744872;82;21467;-44
2022/05/21 07:30:46;;;;;;;10.88;4.33;;;;;;;22.10;49.50;98479.78;1749079;82;21585;-44
2022/05/21 07:33:18;;;;;;;6.50;4.55;;;;;;;22.24;48.83;98473.66;1748664;82;21617;-44
2022/05/21 07:35:45;;;;;;;9.58;3.92;;;;;;;22.36;48.10;98476.91;1749094;82;20985;-44
2022/05/21 07:38:13;;;;;;;10.38;4.10;;;;;;;22.43;48.00;98481.33;1748858;82;21100;-44
2022/05/21 07:40:41;;;;;;;10.23;4.47;;;;;;;22.47;47.45;98470.89;1749189;82;21239;-44
2022/05/21 07:43:13;;;;;;;9.68;3.92;;;;;;;22.53;47.68;98463.53;1748821;82;20941;-44
2022/05/21 07:45:41;;;;;;;8.60;4.50;;;;;;;22.62;47.51;98462.75;1748928;82;21495;-44
2022/05/21 07:48:10;;;;;;;10.00;4.45;;;;;;;22.72;47.23;98462.31;1748903;82;21002;-44
2022/05/21 07:50:40;;;;;;;6.78;3.95;;;;;;;22.78;46.64;98464.62;1749375;82;21052;-44
2022/05/21 07:53:15;;;;;;;7.60;3.80;;;;;;;22.80;46.92;98464.16;1749312;82;21574;-44
2022/05/21 07:55:43;;;;;;;7.80;3.87;;;;;;;22.83;47.29;98458.47;1749200;82;20917;-44
2022/05/21 07:58:11;;;;;;;8.73;3.85;;;;;;;22.88;46.84;98459.23;1749051;82;21069;-44
2022/05/21 08:00:37;;;;;;;8.83;3.70;;;;;;;22.94;46.89;98449.09;1749141;82;21491;-44
2022/05/21 08:03:05;;;;;;;6.80;3.90;;;;;;;22.99;46.57;98444.92;1748815;82;21486;-44
2022/05/21 08:05:32;;;;;;;9.55;4.25;;;;;;;23.03;46.24;98446.91;1743594;82;21783;-44
2022/05/21 08:07:59;;;;;;;6.87;3.55;;;;;;;23.09;45.95;98453.31;1748861;82;21088;-44
2022/05/21 08:10:26;;;;;;;8.30;3.60;;;;;;;23.14;45.34;98442.27;1748830;82;21047;-44
2022/05/21 08:12:53;;;;;;;5.55;3.50;;;;;;;23.21;45.46;98442.69;1748912;82;21052;-44
2022/05/21 08:15:21;;;;;;;10.80;4.12;;;;;;;23.30;45.65;98438.50;1748842;82;21354;-44
2022/05/21 08:17:49;;;;;;;9.85;3.87;;;;;;;23.41;45.04;98440.77;1748880;82;21208;-44
2022/05/21 08:20:15;;;;;;;5.87;3.75;;;;;;;23.52;45.13;98435.53;1748648;82;21527;-44
2022/05/21 08:28:04;;;;;;;8.33;3.85;;;;;;;23.87;44.13;98426.08;1749167;82;21013;-44
2022/05/21 08:30:32;;;;;;;7.40;3.58;;;;;;;23.91;43.71;98414.23;1751762;82;21153;-44
2022/05/21 08:33:04;;;;;;;7.10;3.02;;;;;;;23.97;43.63;98407.41;1751933;82;20988;-44
2022/05/21 08:35:31;;;;;;;7.95;2.95;;;;;;;23.99;43.11;98408.47;1752057;82;21028;-44
2022/05/21 08:38:00;;;;;;;7.37;2.80;;;;;;;23.98;43.77;98408.94;1752179;82;21092;-44
2022/05/21 08:40:47;;;;;;;8.88;3.45;;;;;;;23.97;43.50;98411.55;1751847;82;21044;-44
2022/05/21 08:43:21;;;;;;;6.20;2.95;;;;;;;23.93;43.91;98415.13;1751640;82;21523;-44
2022/05/21 08:46:06;;;;;;;6.50;3.45;;;;;;;23.81;43.93;98417.68;1751545;82;20961;-44
2022/05/21 08:48:33;;;;;;;10.20;3.50;;;;;;;23.71;44.24;98412.67;1751206;82;21036;-44
2022/05/21 08:51:05;;;;;;;8.30;3.22;;;;;;;23.59;44.59;98426.09;1751673;82;21008;-44
2022/05/21 08:53:32;;;;;;;6.87;3.45;;;;;;;23.48;44.71;98440.45;1751955;81;21551;-44
2022/05/21 08:56:00;;;;;;;8.88;3.47;;;;;;;23.33;44.60;98440.97;1751652;82;20898;-44
2022/05/21 08:58:50;;;;;;;7.28;3.60;;;;;;;23.16;45.68;98464.67;1751656;82;21000;-44
2022/05/21 09:01:20;;;;;;;10.75;3.85;;;;;;;22.96;48.10;98488.07;1751686;81;21045;-44
2022/05/21 09:03:50;;;;;;;9.93;4.22;;;;;;;22.64;50.29;98502.52;1751974;81;21103;-44
2022/05/21 09:06:51;;;;;;;7.05;4.00;;;;;;;22.25;52.38;98509.72;1751830;82;20993;-44
2022/05/21 09:09:40;;;;;;;10.43;4.25;;;;;;;21.82;54.77;98515.42;1751696;82;21116;-43
2022/05/21 09:12:26;;;;;;;7.90;4.47;;;;;;;21.23;58.48;98524.97;1712329;82;21534;-44
2022/05/21 09:14:55;;;;;;;7.53;4.45;;;;;;;20.72;61.55;98525.06;1740197;82;21605;-43
2022/05/21 09:17:25;;;;;;;8.60;4.62;;;;;;;20.24;64.31;98516.03;1724607;82;21009;-43
2022/05/21 09:20:01;;;;;;;9.45;5.60;;;;;;;19.90;65.50;98511.86;1751936;82;21056;-44
2022/05/21 09:22:28;;;;;;;10.75;5.05;;;;;;;19.63;66.68;98492.31;1751842;82;21146;-44
2022/05/21 09:24:58;;;;;;;11.75;5.17;;;;;;;19.45;67.96;98481.28;1751919;82;20968;-43
2022/05/21 09:27:38;;;;;;;7.58;4.78;;;;;;;19.28;68.48;98471.56;1751781;82;21036;-44
2022/05/21 09:30:16;;;;;;;10.15;5.05;;;;;;;19.23;68.98;98458.36;1749856;81;21001;-44
2022/05/21 09:32:48;;;;;;;9.60;5.00;;;;;;;19.17;69.58;98468.36;1749375;82;21028;-43
2022/05/21 09:35:17;;;;;;;8.23;5.08;;;;;;;19.10;70.56;98478.97;1749259;82;21207;-43
2022/05/21 09:37:44;;;;;;;7.28;4.83;;;;;;;19.06;71.27;98470.06;1749084;82;20973;-44
2022/05/21 09:40:38;;;;;;;7.58;4.83;;;;;;;19.03;71.47;98457.79;1749029;82;20980;-44
2022/05/21 09:46:26;;;;;;;8.95;5.05;;;;;;;19.03;72.66;98460.54;1749027;82;21101;-44
2022/05/21 09:49:17;;;;;;;12.25;5.55;;;;;;;19.02;72.88;98454.30;1749033;82;21138;-44
2022/05/21 09:51:59;;;;;;;;;;;;;;;18.98;73.17;98450.09;1751480;82;20957;-44
2022/05/21 09:54:30;;;;;;;12.25;5.30;;;;;;;18.91;73.86;98437.95;1748782;82;20158;-44
2022/05/21 09:57:01;;;;;;;10.08;6.15;;;;;;;18.81;74.23;98426.08;1748863;82;21488;-44
2022/05/21 09:59:29;;;;;;;13.20;5.73;;;;;;;18.82;74.33;98424.11;1748787;82;21072;-44
2022/05/21 10:02:01;;;;;;;8.38;5.55;;;;;;;18.83;74.47;98411.29;1749216;82;21186;-44
2022/05/21 10:04:48;;;;;;;9.40;4.92;;;;;;;18.84;74.60;98414.81;1748911;82;21068;-44
2022/05/21 10:13:18;;;;;;;9.55;5.42;;;;;;;18.92;73.74;98403.80;1749020;82;21035;-44
2022/05/21 10:15:50;;;;;;;6.10;4.65;;;;;;;18.86;74.05;98387.09;1749730;80;21135;-44
2022/05/21 10:18:34;;;;;;;9.45;5.25;;;;;;;18.82;74.48;98387.03;1722035;82;21039;-44
2022/05/21 10:21:18;;;;;;;8.43;4.92;;;;;;;18.78;74.28;98376.16;1749039;82;21503;-44
2022/05/21 10:23:55;;;;;;;7.72;5.20;;;;;;;18.74;74.46;98383.71;1711083;83;21864;-44
2022/05/21 10:26:34;;;;;;;7.78;5.00;;;;;;;18.70;74.67;98393.26;1747905;82;21068;-44
2022/05/21 10:29:22;;;;;;;9.73;5.37;;;;;;;18.61;74.83;98397.42;1710314;83;21097;-44
2022/05/21 10:31:57;;;;;;;9.75;5.10;;;;;;;18.56;75.28;98395.22;1743478;82;20948;-44
2022/05/21 10:34:41;;;;;;;8.25;5.35;;;;;;;18.56;75.36;98376.00;1743614;82;21035;-44
2022/05/21 10:37:43;;;;;;;7.83;5.40;;;;;;;18.57;75.44;98352.07;1742475;82;21581;-44
2022/05/21 10:40:21;;;;;;;8.68;5.42;;;;;;;18.66;75.10;98349.45;1708057;84;21045;-44
2022/05/21 10:43:39;;;;;;;10.90;5.35;;;;;;;18.82;75.43;98343.09;1743873;82;20972;-44
2022/05/21 10:46:25;;;;;;;11.53;5.97;;;;;;;18.98;75.27;98335.50;1707505;83;21027;-44
2022/05/21 10:49:05;;;;;;;7.90;5.33;;;;;;;19.16;73.99;98339.08;1743294;82;21000;-43
2022/05/21 10:51:56;;;;;;;8.05;5.60;;;;;;;19.32;73.19;98342.27;1743381;82;21024;-44
2022/05/21 10:54:59;;;;;;;9.43;4.92;;;;;;;19.43;72.65;98331.10;1707740;84;21061;-44
2022/05/21 10:58:14;;;;;;;12.43;5.45;;;;;;;19.45;72.44;98327.34;1743323;82;21230;-44
2022/05/21 11:00:46;;;;;;;7.87;4.75;;;;;;;19.48;72.86;98331.95;1707556;84;20989;-43
2022/05/21 11:03:30;;;;;;;8.08;4.80;;;;;;;19.56;72.87;98333.09;1743207;82;21032;-43
2022/05/21 11:06:38;;;;;;;6.87;4.78;;;;;;;19.63;71.76;98327.34;1742354;82;21052;-43
2022/05/21 11:09:39;;;;;;;6.67;4.08;;;;;;;19.70;72.14;98323.76;1743212;82;21009;-43
2022/05/21 11:12:15;;;;;;;7.00;4.67;;;;;;;19.75;71.51;98317.66;1707622;84;21153;-44
2022/05/21 11:14:46;;;;;;;9.53;4.95;;;;;;;19.82;69.41;98290.53;1743383;82;21561;-43
2022/05/21 11:17:48;;;;;;;7.90;4.60;;;;;;;19.90;69.96;98298.67;1743271;82;21502;-43
2022/05/21 11:20:27;;;;;;;8.28;5.05;;;;;;;19.97;69.75;98292.94;1707306;83;21580;-43
2022/05/21 11:23:07;;;;;;;7.30;4.90;;;;;;;19.99;69.20;98280.89;1743582;82;21048;-43
2022/05/21 11:25:55;;;;;;;6.65;4.42;;;;;;;19.99;68.42;98279.52;1743418;82;21255;-44
2022/05/21 11:28:44;;;;;;;11.30;4.62;;;;;;;20.00;68.32;98285.15;1707524;84;21602;-43
2022/05/21 11:37:20;;;;;;;6.78;4.33;;;;;;;19.94;66.10;98281.46;1724406;81;20985;-43
2022/05/21 11:39:21;;;;;;;9.28;4.83;;;;;;;19.87;66.72;98252.22;1723693;83;23120;-44
2022/05/21 11:41:59;;;;;;;7.95;4.33;;;;;;;20.00;66.04;98252.73;1723997;83;21017;-44
2022/05/21 11:44:58;;;;;;;12.53;4.70;;;;;;;20.19;65.53;98238.64;1723876;83;20988;-44
2022/05/21 11:47:45;;;;;;;8.25;4.97;;;;;;;20.47;66.11;98247.84;1724096;83;21028;-44
2022/05/21 11:50:24;;;;;;;7.12;4.25;;;;;;;21.01;65.49;98245.86;1723911;83;21503;-44
2022/05/21 11:52:56;;;;;;;8.55;4.92;;;;;;;21.59;64.33;98233.37;1724283;83;21133;-45
2022/05/21 11:55:27;;;;;;;12.30;4.92;;;;;;;22.18;63.42;98229.02;1724099;83;21527;-44
2022/05/21 11:58:00;;;;;;;6.50;4.10;;;;;;;22.66;61.23;98225.76;1724345;83;21075;-44
2022/05/21 12:00:37;;;;;;;7.67;4.55;;;;;;;23.01;59.91;98216.38;1724130;83;21100;-44
2022/05/21 12:03:10;;;;;;;5.92;4.10;;;;;;;23.24;58.72;98210.84;1724031;83;21080;-44
2022/05/21 12:05:49;;;;;;;6.20;4.72;;;;;;;23.48;57.24;98207.33;1723919;83;23123;-45
2022/05/21 12:08:34;;;;;;;6.53;4.28;;;;;;;23.69;57.97;98206.97;1723780;83;21479;-45
2022/05/21 12:11:09;;;;;;;6.92;3.95;;;;;;;23.90;57.30;98200.16;1723729;82;21084;-45
2022/05/21 12:13:50;;;;;;;9.05;4.30;;;;;;;24.14;56.30;98209.13;1723723;83;21013;-44
2022/05/21 12:16:24;;;;;;;9.38;4.17;;;;;;;24.18;55.09;98202.18;1723819;83;21243;-45
2022/05/21 12:19:00;;;;;;;6.92;4.28;;;;;;;24.36;55.33;98189.34;1723833;83;23126;-45
2022/05/21 12:21:42;;;;;;;5.37;3.77;;;;;;;24.60;54.81;98193.50;1723787;83;21546;-44
2022/05/21 12:24:37;;;;;;;10.08;4.05;;;;;;;24.89;54.28;98193.28;1723879;83;21084;-45
2022/05/21 12:27:21;;;;;;;8.18;4.22;;;;;;;25.16;52.23;98195.66;1718400;83;21519;-45
2022/05/21 12:29:52;;;;;;;9.28;3.83;;;;;;;25.40;52.80;98189.27;1728818;81;21048;-45